Tiempo atmosférico en la estación meteorológica de Aliseda, Cáceres (321 m.)



Fecha
DESCASC
Temp. máxima en grados centígrados (hora)
DESCASC
Temp. mínima en grados centígrados (hora)
DESCASC
Temp. media en grados centígrados
DESCASC
Racha de viento máxima en m/sg (hora)
DESCASC
Velocidad máxima media en intervalos de 10 minutos(hora)
DESCASC
Precipitaciones diarias en mm
DESCASC
Precipitaciones de 00:00 a 06:00 en mm
DESCASC
Precipitaciones de 06:00 a 12:00 en mm
DESCASC
Precipitaciones de 12:00 a 18:00 en mm
DESCASC
Precipitaciones de 18:00 a 24:00 en mm
DESCASC
17-02-2019 17 (16:20) 1.9 (07:40) 9.4 7.78 (14:50) 3.89 (12:10) 0 0 0 0 0
16-02-2019 18.6 (16:30) 2.4 (08:20) 10.5 5.83 (15:20) 3.61 (19:50) 0 0 0 0 0
15-02-2019 17.3 (16:00) 1.9 (07:10) 9.6 6.11 (14:10) 3.33 (13:50) 0 0 0 0 0
14-02-2019 17.5 (15:40) 2.8 (00:00) 10.1 8.33 (13:00) 4.44 (13:20) 0 0 0 0 0
13-02-2019 17.3 (15:40) 1.4 (00:00) 9.3 4.44 (15:20) 2.78 (20:20) 0 0 0 0 0
12-02-2019 15.8 (16:30) 2.3 (00:00) 9.1 5.28 (14:50) 2.78 (07:30) 0 0 0 0 0
11-02-2019 14.3 (17:10) 5.3 (00:00) 9.8 5.83 (13:40) 3.33 (00:40) 0 0 0 0 0
10-02-2019 14.3 (16:50) 7.9 (00:00) 11.1 10 (09:50) 5.83 (09:50) 0.2 0 0 0 0.2
09-02-2019 14.4 (16:50) 0 (00:00) 7.2 7.5 (17:00) 3.61 (17:00) 0 0 0 0 0
08-02-2019 13.6 (16:10) -0.3 (00:00) 6.7 6.94 (15:30) 3.33 (21:20) 0 0 0 0 0
07-02-2019 16.6 (16:10) 0.3 (00:00) 8.5 4.17 (01:20) 3.06 (03:10) -- 0 0 -- 0
06-02-2019 18.5 (17:10) -0.6 (-00:0) 8.9 3.89 (15:00) 2.5 (15:00) 0 0 0 0 0
05-02-2019 16.4 (17:40) -1.3 (-00:0) 7.5 2.78 (13:10) 1.67 (12:30) 0 0 0 0 0
04-02-2019 13.3 (16:30) -3.8 (-00:0) 4.8 4.17 (14:30) 2.5 (14:10) 0 0 0 0 0
03-02-2019 10.9 (16:00) 0.5 (00:00) 5.7 8.06 (14:20) 4.17 (14:30) 0 0 0 0 0
02-02-2019 11.1 (16:10) 3.2 (00:00) 7.2 13.33 (00:50) 7.5 (00:40) 0 0 0 0 0
01-02-2019 12.6 (00:40) 6 (00:00) 9.3 19.72 (13:30) 11.11 (13:30) 7.4 6.6 0 0.8 0
31-01-2019 14.8 (13:50) 11.2 (00:00) 13 14.44 (16:30) 8.61 (16:40) 3 0.2 0 0 2.8
30-01-2019 12 (14:00) 6.2 (00:00) 9.1 12.22 (23:10) 7.22 (23:40) 0 0 0 0 0
29-01-2019 13.2 (13:30) 6.7 (00:00) 9.9 13.89 (15:30) 7.78 (15:20) 0 0 0 0 0
28-01-2019 14 (13:50) 4.4 (00:00) 9.2 13.33 (15:40) 7.5 (15:40) 0 0 0 0 0
27-01-2019 13.4 (15:50) 5.7 (00:00) 9.5 11.39 (14:50) 6.67 (14:50) 0 0 0 0 0
26-01-2019 18.6 (16:30) -0.2 (00:00) 9.2 6.11 (23:59) 4.17 (20:20) 0 0 0 0 0
25-01-2019 19.2 (16:20) 5.1 (00:00) 12.2 3.61 (00:10) 2.5 (10:20) 0 0 0 0 0
24-01-2019 18.8 (15:40) 9 (00:00) 13.9 9.72 (15:00) 5.83 (14:30) 0 0 0 0 0
23-01-2019 15.9 (15:30) 6.8 (00:00) 11.3 12.22 (12:00) 7.5 (14:30) 0 0 0 0 0
22-01-2019 12.3 (14:20) 3.7 (00:00) 8 10 (17:40) 5.83 (16:30) 0 0 0 0 0
21-01-2019 12.7 (16:50) 2.6 (00:00) 7.6 7.5 (13:00) 4.44 (14:00) 0 0 0 0 0
20-01-2019 13.4 (15:40) 5.8 (00:00) 9.6 8.33 (12:40) 5.28 (14:30) 0.2 0.2 0 0 0
19-01-2019 11.3 (23:30) 2.3 (00:00) 6.8 11.11 (12:10) 8.06 (14:30) 1.4 0 0.6 0.2 0.6

Gráficas

Temp. máximas Temp. mínimas Temp. medias Precipitaciones Rachas de viento máximas Velocidades máximas media en intervalos de 10 minutos

Datos horarios

Fecha y hora oficial Temperatura (ºC) Velocidad del viento (km/h) Dirección del viento Racha (km/h) Dirección de racha Precipitación (mm) Presión (hPa) Tendencia (hPa) Humedad (%)
2019-02-17 23:00:00 12.9 4 Sudeste 16 Sur 0 -- -- 67
2019-02-17 22:00:00 11.7 5 Sur 9 Sur 0 -- -- 71
2019-02-17 21:00:00 10.9 4 Sudoeste 10 Sudoeste 0 -- -- 74
2019-02-17 20:00:00 11.6 9 Sudoeste 10 Sudoeste 0 -- -- 70
2019-02-17 19:00:00 13.3 8 Sudoeste 10 Oeste 0 -- -- 65
2019-02-17 18:00:00 15.5 7 Oeste 21 Sudoeste 0 -- -- 56
2019-02-17 17:00:00 16.9 6 Sudoeste 20 Oeste 0 -- -- 53
2019-02-17 16:00:00 16.2 12 Sudoeste 24 Oeste 0 -- -- 52
2019-02-17 15:00:00 15.9 10 Sudoeste 28 Sudoeste 0 -- -- 53
2019-02-17 14:00:00 15.6 8 Sudeste 27 Sudeste 0 -- -- 54
2019-02-17 13:00:00 14.8 9 Este 22 Este 0 -- -- 58
2019-02-17 12:00:00 12.8 11 Este 19 Este 0 -- -- 64
2019-02-17 11:00:00 10.5 8 Nordeste 15 Este 0 -- -- 73
2019-02-17 10:00:00 6.7 4 Nordeste 12 Este 0 -- -- 86
2019-02-17 09:00:00 3.6 2 Nordeste 5 Este 0 -- -- 94
2019-02-17 08:00:00 1.9 0 Calma 3 Sur 0 -- -- 94
2019-02-17 07:00:00 2.5 0 Calma 5 Sudeste 0 -- -- 94
2019-02-17 06:00:00 2.3 0 Calma 3 Sur 0 -- -- 95
2019-02-17 05:00:00 2.5 0 Calma 6 Noroeste 0 -- -- 93
2019-02-17 04:00:00 3.3 0 Calma 7 Oeste 0 -- -- 91
2019-02-17 03:00:00 5.1 3 Este 6 Este 0 -- -- 89
2019-02-17 02:00:00 5.7 3 Sudeste 5 Sudeste 0 -- -- 87
2019-02-17 01:00:00 5.4 0 Calma 4 Sudeste 0 -- -- 86
2019-02-17 00:00:00 6.2 2 Sur 13 Oeste 0 -- -- 83
2019-02-16 23:00:00 6.5 0 Calma 4 Oeste 0 -- -- 81
2019-02-16 22:00:00 9.3 2 Noroeste 14 Este 0 -- -- 68
2019-02-16 21:00:00 13.4 9 Este 15 Sudeste 0 -- -- 54
2019-02-16 20:00:00 13.9 12 Sudeste 18 Sudeste 0 -- -- 48
2019-02-16 19:00:00 14.7 7 Sudeste 14 Este 0 -- -- 56
2019-02-16 18:00:00 17.7 7 Este 17 Este 0 -- -- 50
2019-02-16 17:00:00 18.5 7 Nordeste 17 Este 0 -- -- 49
2019-02-16 16:00:00 18.5 8 Este 21 Este 0 -- -- 48
2019-02-16 15:00:00 18 10 Este 20 Este 0 -- -- 48
2019-02-16 14:00:00 16.9 7 Este 18 Este 0 -- -- 52
2019-02-16 13:00:00 15.7 10 Este 20 Este 0 -- -- 54
2019-02-16 12:00:00 13.6 6 Este 14 Este 0 -- -- 63
2019-02-16 11:00:00 7.8 0 Calma 5 Este 0 -- -- 87
2019-02-16 10:00:00 4.5 2 Noroeste 4 Noroeste 0 -- -- 91
2019-02-16 09:00:00 3.1 0 Calma 4 Sur 0 -- -- 96
2019-02-16 08:00:00 2.7 2 Sudoeste 6 Sur 0 -- -- 93
2019-02-16 07:00:00 3.2 4 Sudoeste 7 Sur 0 -- -- 93
2019-02-16 06:00:00 4.5 3 Sur 10 Sur 0 -- -- 90
2019-02-16 05:00:00 4.8 5 Sudoeste 9 Sur 0 -- -- 91
2019-02-16 04:00:00 4.5 0 Calma 3 Sur 0 -- -- 89
2019-02-16 03:00:00 4.7 0 Calma 2 Noroeste 0 -- -- 89
2019-02-16 02:00:00 5.4 0 Calma 6 Sur 0 -- -- 87
2019-02-16 01:00:00 5.8 0 Calma 6 Sur 0 -- -- 85
2019-02-16 00:00:00 8.2 4 Este 8 Este 0 -- -- 78
2019-02-15 23:00:00 9.6 4 Este 12 Este 0 -- -- 73
2019-02-15 22:00:00 11 9 Este 15 Este 0 -- -- 68
2019-02-15 21:00:00 11 7 Este 12 Este 0 -- -- 69
2019-02-15 20:00:00 11.4 8 Sudeste 10 Sudeste 0 -- -- 69
2019-02-15 19:00:00 13.5 5 Este 6 Este 0 -- -- 65
2019-02-15 18:00:00 16.3 2 Nordeste 12 Nordeste 0 -- -- 58
2019-02-15 17:00:00 17 5 Nordeste 14 Norte 0 -- -- 52
2019-02-15 16:00:00 17.3 8 Nordeste 17 Nordeste 0 -- -- 53
2019-02-15 15:00:00 16.6 10 Este 22 Este 0 -- -- 53
2019-02-15 14:00:00 16.1 9 Nordeste 22 Este 0 -- -- 55
2019-02-15 13:00:00 14.9 8 Este 16 Nordeste 0 -- -- 59
2019-02-15 12:00:00 12.1 7 Este 16 Este 0 -- -- 65
2019-02-15 11:00:00 9.9 5 Nordeste 12 Este 0 -- -- 72
2019-02-15 10:00:00 7.1 6 Nordeste 14 Este 0 -- -- 82
2019-02-15 09:00:00 2.8 4 Este 9 Este 0 -- -- 96
2019-02-15 08:00:00 2.1 0 Calma 6 Noroeste 0 -- -- 95
2019-02-15 07:00:00 2.1 0 Calma 11 Este 0 -- -- 91
2019-02-15 06:00:00 2.7 0 Calma 6 Sudeste 0 -- -- 94
2019-02-15 05:00:00 2.7 4 Este 6 Sudeste 0 -- -- 93
2019-02-15 04:00:00 3.5 4 Oeste 8 Oeste 0 -- -- 91
2019-02-15 03:00:00 4.8 0 Calma 10 Nordeste 0 -- -- 86
2019-02-15 02:00:00 5.8 0 Calma 13 Sudeste 0 -- -- 83
2019-02-15 01:00:00 5.7 0 Calma 6 Este 0 -- -- 83
2019-02-15 00:00:00 8.6 3 Oeste 22 Este 0 -- -- 72
2019-02-14 23:00:00 11.7 10 Este 19 Este 0 -- -- 61
2019-02-14 22:00:00 10.2 14 Este 25 Este 0 -- -- 70
2019-02-14 21:00:00 13.7 15 Este 24 Sudeste 0 -- -- 54
2019-02-14 20:00:00 13.6 13 Sudeste 20 Este 0 -- -- 58
2019-02-14 19:00:00 14.6 13 Sudeste 18 Sudeste 0 -- -- 55
2019-02-14 18:00:00 16.6 13 Este 20 Este 0 -- -- 51
2019-02-14 17:00:00 17.4 14 Este 24 Este 0 -- -- 49
2019-02-14 16:00:00 17.4 10 Este 24 Este 0 -- -- 49
2019-02-14 15:00:00 17.1 12 Este 24 Este 0 -- -- 50
2019-02-14 14:00:00 16.3 13 Este 28 Este 0 -- -- 50
2019-02-14 13:00:00 15.4 13 Este 30 Este 0 -- -- 54
2019-02-14 12:00:00 13.1 14 Este 24 Este 0 -- -- 64
2019-02-14 11:00:00 10.4 10 Este 24 Este 0 -- -- 73
2019-02-14 10:00:00 7.3 7 Este 15 Este 0 -- -- 84
2019-02-14 09:00:00 5 3 Este 11 Este 0 -- -- 92
2019-02-14 08:00:00 3 0 Calma 5 Sudeste 0 -- -- 95
2019-02-14 07:00:00 3.4 0 Calma 4 Sur 0 -- -- 96
2019-02-14 06:00:00 3 0 Calma -- -- 0 -- -- 94
2019-02-14 05:00:00 3.4 0 Calma 3 Este 0 -- -- 95
2019-02-14 04:00:00 3.7 2 Sudeste 5 Sudeste 0 -- -- 93
2019-02-14 03:00:00 4.4 0 Calma 4 Sudeste 0 -- -- 91
2019-02-14 02:00:00 5 0 Calma 6 Oeste 0 -- -- 91
2019-02-14 01:00:00 5.5 0 Calma 3 Sur 0 -- -- 88
2019-02-14 00:00:00 6.7 0 Calma 6 Este 0 -- -- 83
2019-02-13 23:00:00 9.2 3 Este 8 Este 0 -- -- 75
2019-02-13 22:00:00 11 6 Sudeste 12 Sudeste 0 -- -- 70
2019-02-13 21:00:00 11.9 8 Sudeste 12 Este 0 -- -- 67
2019-02-13 20:00:00 11.8 10 Sudeste 12 Sudeste 0 -- -- 66
2019-02-13 19:00:00 13.5 7 Sudeste 10 Nordeste 0 -- -- 64
2019-02-13 18:00:00 16.6 4 Nordeste 13 Este 0 -- -- 55
2019-02-13 17:00:00 17.3 5 Nordeste 13 Nordeste 0 -- -- 52
2019-02-13 16:00:00 17.2 7 Este 16 Nordeste 0 -- -- 53
2019-02-13 15:00:00 16.9 6 Nordeste 15 Este 0 -- -- 53
2019-02-13 14:00:00 15.9 6 Nordeste 14 Este 0 -- -- 53
2019-02-13 13:00:00 14.1 5 Nordeste 12 Nordeste 0 -- -- 62
2019-02-13 12:00:00 11.6 5 Nordeste 10 Nordeste 0 -- -- 70
2019-02-13 11:00:00 8.3 2 Norte 5 Nordeste 0 -- -- 81
2019-02-13 10:00:00 4.5 0 Calma 3 Noroeste 0 -- -- 89
2019-02-13 09:00:00 1.5 0 Calma 3 Oeste 0 -- -- 94
2019-02-13 08:00:00 1.7 0 Calma 3 Sur 0 -- -- 95
2019-02-13 07:00:00 2 0 Calma 2 Noroeste 0 -- -- 92
2019-02-13 06:00:00 2.3 0 Calma 3 Sur 0 -- -- 92
2019-02-13 05:00:00 2.3 0 Calma 4 Sur 0 -- -- 91
2019-02-13 04:00:00 2.6 0 Calma 3 Sudeste 0 -- -- 90
2019-02-13 03:00:00 3 0 Calma 3 Sur 0 -- -- 90
2019-02-13 02:00:00 3.1 0 Calma 2 Noroeste 0 -- -- 87
2019-02-13 01:00:00 3.4 0 Calma 2 Sur 0 -- -- 86
2019-02-13 00:00:00 4.2 0 Calma 2 Noroeste 0 -- -- 82
2019-02-12 23:00:00 5.7 0 Calma 3 Noroeste 0 -- -- 76
2019-02-12 22:00:00 8.7 0 Calma 13 Sudeste 0 -- -- 63
2019-02-12 21:00:00 10.2 9 Sudeste 12 Sudeste 0 -- -- 58
2019-02-12 20:00:00 10.9 9 Sudeste 11 Sudeste 0 -- -- 59
2019-02-12 19:00:00 12 8 Sudeste 10 Este 0 -- -- 59
2019-02-12 18:00:00 14.7 7 Nordeste 17 Nordeste 0 -- -- 51
2019-02-12 17:00:00 15.7 6 Nordeste 16 Nordeste 0 -- -- 47
2019-02-12 16:00:00 15.5 6 Nordeste 15 Nordeste 0 -- -- 47
2019-02-12 15:00:00 14.9 10 Nordeste 19 Nordeste 0 -- -- 52
2019-02-12 14:00:00 14.1 8 Nordeste 17 Nordeste 0 -- -- 55
2019-02-12 13:00:00 12.8 5 Nordeste 15 Este 0 -- -- 60
2019-02-12 12:00:00 10.7 7 Nordeste 15 Este 0 -- -- 67
2019-02-12 11:00:00 8.3 5 Nordeste 9 Este 0 -- -- 74
2019-02-12 10:00:00 5 2 Noroeste 4 Noroeste 0 -- -- 85
2019-02-12 09:00:00 2.3 0 Calma 9 Este 0 -- -- 88
2019-02-12 08:00:00 4.1 4 Este 16 Este 0 -- -- 79
2019-02-12 07:00:00 4.5 6 Este 10 Este 0 -- -- 83
2019-02-12 06:00:00 3.7 0 Calma 9 Este 0 -- -- 89
2019-02-12 05:00:00 3.3 0 Calma 9 Oeste 0 -- -- 90
2019-02-12 04:00:00 3.8 0 Calma 9 Sur 0 -- -- 91
2019-02-12 03:00:00 4.7 3 Sudoeste 9 Sur 0 -- -- 87
2019-02-12 02:00:00 4.2 3 Sur 6 Sur 0 -- -- 92
2019-02-12 01:00:00 4.8 0 Calma 4 Sudeste 0 -- -- 89
2019-02-12 00:00:00 6 0 Calma 5 Sudeste 0 -- -- 89
2019-02-11 23:00:00 6.9 3 Sudeste 6 Sur 0 -- -- 91
2019-02-11 22:00:00 7.4 2 Sudeste 7 Sur 0 -- -- 89
2019-02-11 21:00:00 8 3 Sudeste 8 Sudeste 0 -- -- 87
2019-02-11 20:00:00 8.6 4 Sur 9 Sur 0 -- -- 86
2019-02-11 19:00:00 10.2 2 Sudoeste 6 Sur 0 -- -- 83
2019-02-11 18:00:00 14.1 4 Nordeste 10 Nordeste 0 -- -- 68
2019-02-11 17:00:00 14.2 5 Este 15 Este 0 -- -- 68
2019-02-11 16:00:00 13.6 9 Este 19 Nordeste 0 -- -- 69
2019-02-11 15:00:00 13.3 9 Nordeste 18 Nordeste 0 -- -- 70
2019-02-11 14:00:00 13.1 8 Nordeste 21 Nordeste 0 -- -- 70
2019-02-11 13:00:00 11.7 8 Nordeste 18 Noroeste 0 -- -- 72
2019-02-11 12:00:00 11 5 Norte 13 Oeste 0 -- -- 74
2019-02-11 11:00:00 8.2 9 Oeste 13 Oeste 0 -- -- 81
2019-02-11 10:00:00 7.4 3 Oeste 17 Oeste 0 -- -- 83
2019-02-11 09:00:00 5.8 8 Oeste 15 Sudoeste 0 -- -- 88
2019-02-11 08:00:00 5.5 7 Sudoeste 15 Sudoeste 0 -- -- 90
2019-02-11 07:00:00 5.7 11 Sudoeste 17 Sudoeste 0 -- -- 90
2019-02-11 06:00:00 6.2 8 Oeste 14 Oeste 0 -- -- 91
2019-02-11 05:00:00 6.6 9 Sudoeste 16 Sudoeste 0 -- -- 93
2019-02-11 04:00:00 7.2 7 Sudoeste 14 Oeste 0 -- -- 95
2019-02-11 03:00:00 7.9 10 Sudoeste 16 Oeste 0 -- -- 96
2019-02-11 02:00:00 8.7 10 Oeste 19 Oeste 0 -- -- 93
2019-02-11 01:00:00 10.1 8 Sudoeste 19 Oeste 0 -- -- 93
2019-02-11 00:00:00 12 13 Oeste 18 Sudoeste 0 -- -- 91
2019-02-10 23:00:00 12.7 11 Sudoeste 20 Sudoeste 0.2 -- -- 93
2019-02-10 22:00:00 12.8 16 Sudoeste 27 Sudoeste 0 -- -- 94
2019-02-10 21:00:00 12.6 16 Sudoeste 27 Sur 0 -- -- 93
2019-02-10 20:00:00 12.7 12 Sudoeste 26 Sur 0 -- -- 92
2019-02-10 19:00:00 13.2 12 Sudoeste 33 Sudoeste 0 -- -- 88
2019-02-10 18:00:00 14.2 19 Sudoeste 33 Sur 0 -- -- 79
2019-02-10 17:00:00 14.3 17 Sudoeste 29 Sur 0 -- -- 77
2019-02-10 16:00:00 13.8 9 Sur 28 Sudoeste 0 -- -- 79
2019-02-10 15:00:00 13.9 15 Sudoeste 27 Sudoeste 0 -- -- 77
2019-02-10 14:00:00 13.2 17 Sudoeste 30 Sudoeste 0 -- -- 79
2019-02-10 13:00:00 12 18 Sudoeste 30 Sudoeste 0 -- -- 80
2019-02-10 12:00:00 11.4 18 Sur 32 Sudoeste 0 -- -- 81
2019-02-10 11:00:00 10.3 20 Sur 35 Sur 0 -- -- 83
2019-02-10 10:00:00 9.4 16 Sur 36 Sur 0 -- -- 86
2019-02-10 09:00:00 8.7 13 Sudoeste 22 Sudoeste 0 -- -- 88
2019-02-10 08:00:00 8.2 13 Sudoeste 22 Sudoeste 0 -- -- 86
2019-02-10 07:00:00 8.2 13 Sudoeste 21 Sudoeste 0 -- -- 84
2019-02-10 06:00:00 8.4 11 Sudoeste 23 Sudoeste 0 -- -- 82
2019-02-10 05:00:00 7.9 13 Sudoeste 20 Sudoeste 0 -- -- 84
2019-02-10 04:00:00 8.4 9 Sudoeste 17 Sudoeste 0 -- -- 81
2019-02-10 03:00:00 8.8 10 Sudoeste 16 Sudoeste 0 -- -- 79
2019-02-10 02:00:00 9 9 Sudoeste 22 Sur 0 -- -- 78
2019-02-10 01:00:00 9.8 8 Sudoeste 15 Oeste 0 -- -- 74
2019-02-10 00:00:00 10.2 8 Sudoeste 15 Sur 0 -- -- 72
2019-02-09 23:00:00 9.1 6 Sudoeste 13 Sur 0 -- -- 77
2019-02-09 22:00:00 7.6 7 Sudoeste 9 Sudoeste 0 -- -- 85
2019-02-09 21:00:00 8.5 5 Sudoeste 10 Sudoeste 0 -- -- 86
2019-02-09 20:00:00 9 7 Sur 8 Sur 0 -- -- 85
2019-02-09 19:00:00 10.8 3 Sudoeste 6 Noroeste 0 -- -- 80
2019-02-09 18:00:00 13 6 Oeste 16 Sur 0 -- -- 71
2019-02-09 17:00:00 14.3 13 Sudoeste 27 Sudoeste 0 -- -- 62
2019-02-09 16:00:00 13.8 3 Sudoeste 12 Oeste 0 -- -- 66
2019-02-09 15:00:00 13.1 6 Sudoeste 12 Sudoeste 0 -- -- 69
2019-02-09 14:00:00 12.6 5 Norte 12 Noroeste 0 -- -- 73
2019-02-09 13:00:00 11.3 4 Nordeste 7 Nordeste 0 -- -- 83
2019-02-09 12:00:00 7.6 3 Nordeste 6 Nordeste 0 -- -- 95
2019-02-09 11:00:00 3.9 2 Nordeste 3 Este 0 -- -- 99
2019-02-09 10:00:00 1.4 0 Calma 3 Este 0 -- -- 99
2019-02-09 09:00:00 0 0 Calma 2 Sudeste 0 -- -- 97
2019-02-09 08:00:00 0.5 0 Calma 0 Calma 0 -- -- 96
2019-02-09 07:00:00 1.4 0 Calma 3 Norte 0 -- -- 96
2019-02-09 06:00:00 2 0 Calma 4 Noroeste 0 -- -- 95
2019-02-09 05:00:00 3.4 0 Calma 4 Oeste 0 -- -- 95
2019-02-09 04:00:00 5.4 4 Oeste 12 Sudoeste 0 -- -- 83
2019-02-09 03:00:00 7.3 6 Sudoeste 11 Sudoeste 0 -- -- 92
2019-02-09 02:00:00 7.7 6 Sudoeste 12 Oeste 0 -- -- 92
2019-02-09 01:00:00 8.1 8 Oeste 15 Sudoeste 0 -- -- 90
2019-02-09 00:00:00 8.2 6 Sudoeste 13 Sudoeste 0 -- -- 86
2019-02-08 23:00:00 9 9 Sudoeste 15 Sudoeste 0 -- -- 82
2019-02-08 22:00:00 9.3 9 Sudoeste 19 Sudoeste 0 -- -- 79
2019-02-08 21:00:00 9.2 9 Sudoeste 16 Sudoeste 0 -- -- 77
2019-02-08 20:00:00 9.6 10 Sudoeste 17 Sudoeste 0 -- -- 76
2019-02-08 19:00:00 9.6 6 Sudoeste 8 Oeste 0 -- -- 78
2019-02-08 18:00:00 12.6 2 Noroeste 9 Noroeste 0 -- -- 72
2019-02-08 17:00:00 12.9 6 Noroeste 19 Oeste 0 -- -- 73
2019-02-08 16:00:00 13.4 8 Sudoeste 25 Sur 0 -- -- 69
2019-02-08 15:00:00 13.2 8 Sudoeste 15 Sudoeste 0 -- -- 67
2019-02-08 14:00:00 12 7 Oeste 12 Sudoeste 0 -- -- 72
2019-02-08 13:00:00 11.1 5 Oeste 13 Sudoeste 0 -- -- 74
2019-02-08 12:00:00 9.6 6 Oeste 13 Sudoeste 0 -- -- 80
2019-02-08 11:00:00 6.5 2 Nordeste 5 Este 0 -- -- 89
2019-02-08 10:00:00 2.5 0 Calma 4 Noroeste 0 -- -- 93
2019-02-08 09:00:00 0 0 Calma 3 Sudeste 0 -- -- 96
2019-02-08 08:00:00 -0.2 0 Calma 3 Este 0 -- -- 95
2019-02-08 07:00:00 0.7 0 Calma 4 Sur 0 -- -- 96
2019-02-08 06:00:00 0.6 0 Calma 2 Noroeste 0 -- -- 95
2019-02-08 05:00:00 1.2 0 Calma 2 Oeste 0 -- -- 95
2019-02-08 04:00:00 2 0 Calma 2 Nordeste 0 -- -- 93
2019-02-08 03:00:00 2.8 0 Calma 2 Sur 0 -- -- 93
2019-02-08 02:00:00 3.8 0 Calma 6 Sur 0 -- -- 90
2019-02-08 01:00:00 6.1 2 Sudoeste 13 Sur 0 -- -- 84
2019-02-08 00:00:00 6.8 6 Sudoeste 11 Oeste 0 -- -- 89
2019-02-07 23:00:00 6.6 3 Sur 6 Noroeste 0 -- -- 85
2019-02-07 22:00:00 7.7 0 Calma 11 Sudoeste 0 -- -- 81
2019-02-07 21:00:00 8.7 10 Sudoeste 12 Sudoeste 0 -- -- 78
2019-02-07 20:00:00 8.3 2 Sudoeste 6 Sur 0 -- -- 79
2019-02-07 19:00:00 9.4 3 Sudoeste 5 Sudoeste 0 -- -- 76
2019-02-07 18:00:00 14.2 3 Oeste 12 Noroeste -- -- -- 60
2019-02-07 17:00:00 16.2 6 Noroeste 15 Oeste -- -- -- 56
2019-02-07 16:00:00 16.3 5 Noroeste 13 Noroeste -- -- -- 53
2019-02-07 15:00:00 15.7 6 Norte 13 Oeste -- -- -- 57
2019-02-07 14:00:00 14.7 6 Noroeste 14 Noroeste -- -- -- 56
2019-02-07 13:00:00 13.2 5 Noroeste 11 Oeste 0 -- -- 61
2019-02-07 12:00:00 10.5 4 Oeste 12 Oeste 0 -- -- 65
2019-02-07 11:00:00 7.8 5 Oeste 10 Oeste 0 -- -- 72
2019-02-07 10:00:00 3 0 Calma 9 Sur 0 -- -- 86
2019-02-07 09:00:00 0.4 3 Sudoeste 6 Sur 0 -- -- 94
2019-02-07 08:00:00 1.8 3 Oeste 8 Sur 0 -- -- 88
2019-02-07 07:00:00 1.2 0 Calma 9 Sur 0 -- -- 90
2019-02-07 06:00:00 1.7 3 Oeste 9 Noroeste 0 -- -- 87
2019-02-07 05:00:00 2.9 0 Calma 5 Sudeste 0 -- -- 84
2019-02-07 04:00:00 5 0 Calma 15 Sudoeste 0 -- -- 81
2019-02-07 03:00:00 9.1 11 Sudoeste 15 Sudoeste 0 -- -- 59
2019-02-07 02:00:00 8.8 6 Sudoeste 15 Sudoeste 0 -- -- 70
2019-02-07 01:00:00 7.2 4 Oeste 12 Oeste 0 -- -- 81
2019-02-07 00:00:00 7.2 0 Calma 6 Sudoeste 0 -- -- 84
2019-02-06 23:00:00 9.3 4 Oeste 13 Oeste 0 -- -- 77
2019-02-06 22:00:00 8.9 0 Calma 9 Sudoeste 0 -- -- 80
2019-02-06 21:00:00 9 5 Sudoeste 8 Sudoeste 0 -- -- 79
2019-02-06 20:00:00 9.3 5 Sudoeste 8 Sudoeste 0 -- -- 76
2019-02-06 19:00:00 10.7 3 Sudoeste 6 Sur 0 -- -- 71
2019-02-06 18:00:00 15.4 2 Sudoeste 9 Oeste 0 -- -- 57
2019-02-06 17:00:00 18.4 3 Sudoeste 11 Oeste 0 -- -- 45
2019-02-06 16:00:00 17.8 6 Oeste 13 Oeste 0 -- -- 44
2019-02-06 15:00:00 17.6 9 Oeste 14 Oeste 0 -- -- 49
2019-02-06 14:00:00 15.7 3 Noroeste 6 Norte 0 -- -- 54
2019-02-06 13:00:00 13.3 2 Noroeste 6 Nordeste 0 -- -- 62
2019-02-06 12:00:00 10.6 0 Calma 4 Noroeste 0 -- -- 75
2019-02-06 11:00:00 7.1 0 Calma 2 Nordeste 0 -- -- 85
2019-02-06 10:00:00 3.1 0 Calma 2 Este 0 -- -- 94
2019-02-06 09:00:00 -0.4 0 Calma 2 Sudeste 0 -- -- 96
2019-02-06 08:00:00 -0.4 0 Calma -- -- 0 -- -- 95
2019-02-06 07:00:00 0.3 0 Calma -- -- 0 -- -- 94
2019-02-06 06:00:00 1.1 0 Calma -- -- 0 -- -- 96
2019-02-06 05:00:00 1.1 0 Calma -- -- 0 -- -- 94
2019-02-06 04:00:00 1.7 0 Calma 0 Calma 0 -- -- 94
2019-02-06 03:00:00 2.4 0 Calma 0 Calma 0 -- -- 91
2019-02-06 02:00:00 3.2 0 Calma 3 Sudeste 0 -- -- 92
2019-02-06 01:00:00 3.8 0 Calma 3 Sur 0 -- -- 89
2019-02-06 00:00:00 4.7 0 Calma 5 Sur 0 -- -- 86
2019-02-05 23:00:00 5.4 2 Sur 5 Sur 0 -- -- 84
2019-02-05 22:00:00 6.5 0 Calma 6 Sur 0 -- -- 80
2019-02-05 21:00:00 6.8 3 Sur 5 Sur 0 -- -- 79
2019-02-05 20:00:00 8 3 Sur 7 Sudoeste 0 -- -- 74
2019-02-05 19:00:00 9.3 3 Sudoeste 6 Sur 0 -- -- 69
2019-02-05 18:00:00 15.5 4 Sudeste 6 Sudeste 0 -- -- 55
2019-02-05 17:00:00 16 0 Calma 7 Nordeste 0 -- -- 48
2019-02-05 16:00:00 14.8 4 Nordeste 7 Norte 0 -- -- 48
2019-02-05 15:00:00 15.1 2 Nordeste 7 Nordeste 0 -- -- 52
2019-02-05 14:00:00 14.1 2 Nordeste 10 Nordeste 0 -- -- 52
2019-02-05 13:00:00 12.2 4 Nordeste 10 Nordeste 0 -- -- 55
2019-02-05 12:00:00 9.9 5 Nordeste 10 Nordeste 0 -- -- 65
2019-02-05 11:00:00 5.7 3 Nordeste 5 Nordeste 0 -- -- 83
2019-02-05 10:00:00 1.8 0 Calma 3 Este 0 -- -- 90
2019-02-05 09:00:00 -0.6 0 Calma 3 Sudeste 0 -- -- 94
2019-02-05 08:00:00 -1.2 0 Calma 0 Calma 0 -- -- 93
2019-02-05 07:00:00 -1 0 Calma 3 Sur 0 -- -- 92
2019-02-05 06:00:00 -0.5 0 Calma 2 Sudeste 0 -- -- 92
2019-02-05 05:00:00 -0.7 0 Calma 2 Noroeste 0 -- -- 92
2019-02-05 04:00:00 -0.2 0 Calma 3 Sudeste 0 -- -- 90
2019-02-05 03:00:00 -0.2 0 Calma 2 Noroeste 0 -- -- 89
2019-02-05 02:00:00 0.9 0 Calma 3 Sur 0 -- -- 85
2019-02-05 01:00:00 1.7 0 Calma 3 Sur 0 -- -- 81
2019-02-05 00:00:00 2.2 0 Calma 4 Sur 0 -- -- 79
2019-02-04 23:00:00 3.1 2 Oeste 6 Sur 0 -- -- 74
2019-02-04 22:00:00 3.8 0 Calma 6 Sur 0 -- -- 71
2019-02-04 21:00:00 4.8 3 Sur 6 Sudoeste 0 -- -- 69
2019-02-04 20:00:00 5 3 Sur 6 Sur 0 -- -- 67
2019-02-04 19:00:00 6 3 Sudoeste 4 Sudoeste 0 -- -- 68
2019-02-04 18:00:00 10.2 0 Calma 10 Noroeste 0 -- -- 58
2019-02-04 17:00:00 12.9 5 Noroeste 11 Noroeste 0 -- -- 46
2019-02-04 16:00:00 13 6 Oeste 14 Oeste 0 -- -- 44
2019-02-04 15:00:00 12.5 8 Noroeste 15 Oeste 0 -- -- 48
2019-02-04 14:00:00 11.5 8 Oeste 14 Oeste 0 -- -- 54
2019-02-04 13:00:00 9.1 3 Noroeste 8 Oeste 0 -- -- 58
2019-02-04 12:00:00 6.4 0 Calma 6 Oeste 0 -- -- 66
2019-02-04 11:00:00 2.2 0 Calma 5 Oeste 0 -- -- 80
2019-02-04 10:00:00 -1.1 0 Calma 2 Noroeste 0 -- -- 87
2019-02-04 09:00:00 -3.8 0 Calma 2 Oeste 0 -- -- 91
2019-02-04 08:00:00 -3 0 Calma 2 Sudeste 0 -- -- 93
2019-02-04 07:00:00 -2.5 0 Calma 5 Sur 0 -- -- 89
2019-02-04 06:00:00 -1.4 0 Calma 6 Sur 0 -- -- 86
2019-02-04 05:00:00 -1.1 2 Oeste 7 Sur 0 -- -- 83
2019-02-04 04:00:00 -0.1 0 Calma 8 Sur 0 -- -- 81
2019-02-04 03:00:00 -0.4 2 Sur 5 Sur 0 -- -- 83
2019-02-04 02:00:00 0.2 0 Calma 4 Sur 0 -- -- 79
2019-02-04 01:00:00 0.8 0 Calma 4 Sur 0 -- -- 78
2019-02-04 00:00:00 0.9 3 Sur 6 Sur 0 -- -- 77
2019-02-03 23:00:00 2.6 4 Este 8 Este 0 -- -- 68
2019-02-03 22:00:00 2.4 4 Sur 8 Sur 0 -- -- 71
2019-02-03 21:00:00 2.8 0 Calma 9 Sur 0 -- -- 72
2019-02-03 20:00:00 3.5 3 Sur 7 Sur 0 -- -- 70
2019-02-03 19:00:00 4.8 3 Sudoeste 10 Norte 0 -- -- 66
2019-02-03 18:00:00 10.1 4 Norte 18 Nordeste 0 -- -- 45
2019-02-03 17:00:00 10.8 8 Norte 22 Nordeste 0 -- -- 42
2019-02-03 16:00:00 10.9 10 Norte 26 Nordeste 0 -- -- 41
2019-02-03 15:00:00 10.4 12 Norte 29 Nordeste 0 -- -- 43
2019-02-03 14:00:00 10 13 Norte 25 Nordeste 0 -- -- 44
2019-02-03 13:00:00 7.7 10 Norte 27 Nordeste 0 -- -- 56
2019-02-03 12:00:00 7 14 Nordeste 24 Nordeste 0 -- -- 56
2019-02-03 11:00:00 5.3 5 Oeste 13 Noroeste 0 -- -- 77
2019-02-03 10:00:00 3 7 Oeste 10 Oeste 0 -- -- 80
2019-02-03 09:00:00 0.8 4 Oeste 14 Noroeste 0 -- -- 88
2019-02-03 08:00:00 1.7 9 Oeste 21 Oeste 0 -- -- 85
2019-02-03 07:00:00 2.1 10 Oeste 18 Sudoeste 0 -- -- 85
2019-02-03 06:00:00 2.4 6 Oeste 22 Oeste 0 -- -- 82
2019-02-03 05:00:00 2.9 8 Sudoeste 15 Oeste 0 -- -- 82
2019-02-03 04:00:00 3.2 8 Sudoeste 15 Sudoeste 0 -- -- 82
2019-02-03 03:00:00 2.4 3 Oeste 12 Oeste 0 -- -- 83
2019-02-03 02:00:00 3 6 Oeste 13 Oeste 0 -- -- 81
2019-02-03 01:00:00 2.4 3 Sudoeste 13 Oeste 0 -- -- 81
2019-02-03 00:00:00 3.3 6 Oeste 11 Oeste 0 -- -- 76
2019-02-02 23:00:00 4.6 7 Oeste 13 Oeste 0 -- -- 66
2019-02-02 22:00:00 5 8 Oeste 17 Oeste 0 -- -- 63
2019-02-02 21:00:00 5.3 6 Oeste 12 Oeste 0 -- -- 62
2019-02-02 20:00:00 5.4 5 Oeste 13 Noroeste 0 -- -- 62
2019-02-02 19:00:00 7.4 4 Noroeste 22 Noroeste 0 -- -- 55
2019-02-02 18:00:00 9.6 13 Noroeste 33 Noroeste 0 -- -- 47
2019-02-02 17:00:00 10.6 15 Noroeste 37 Noroeste 0 -- -- 44
2019-02-02 16:00:00 10.9 21 Noroeste 39 Norte 0 -- -- 46
2019-02-02 15:00:00 10 19 Noroeste 34 Noroeste 0 -- -- 50
2019-02-02 14:00:00 9.9 18 Noroeste 37 Noroeste 0 -- -- 49
2019-02-02 13:00:00 9.4 21 Noroeste 43 Noroeste 0 -- -- 54
2019-02-02 12:00:00 8.3 20 Noroeste 47 Noroeste 0 -- -- 60
2019-02-02 11:00:00 7.1 21 Noroeste 36 Noroeste 0 -- -- 66
2019-02-02 10:00:00 5.4 13 Oeste 27 Noroeste 0 -- -- 72
2019-02-02 09:00:00 3.2 13 Oeste 23 Oeste 0 -- -- 80
2019-02-02 08:00:00 3.7 17 Oeste 26 Oeste 0 -- -- 79
2019-02-02 07:00:00 4.1 11 Oeste 23 Oeste 0 -- -- 80
2019-02-02 06:00:00 4.9 12 Oeste 31 Oeste 0 -- -- 82
2019-02-02 05:00:00 5.3 15 Oeste 31 Oeste 0 -- -- 82
2019-02-02 04:00:00 5.3 14 Oeste 28 Noroeste 0 -- -- 84
2019-02-02 03:00:00 6.3 13 Oeste 33 Oeste 0 -- -- 83
2019-02-02 02:00:00 6.1 16 Oeste 33 Oeste 0 -- -- 82
2019-02-02 01:00:00 6.8 22 Oeste 48 Oeste 0 -- -- 78
2019-02-02 00:00:00 6.4 20 Oeste 40 Oeste 0 -- -- 79
2019-02-01 23:00:00 7 21 Oeste 39 Oeste 0 -- -- 79
2019-02-01 22:00:00 6.1 18 Oeste 39 Noroeste 0 -- -- 82
2019-02-01 21:00:00 6.5 22 Oeste 42 Oeste 0 -- -- 82
2019-02-01 20:00:00 6.6 26 Oeste 46 Oeste 0 -- -- 81
2019-02-01 19:00:00 6.4 23 Oeste 57 Oeste 0 -- -- 77
2019-02-01 18:00:00 8 30 Oeste 61 Oeste 0 -- -- 69
2019-02-01 17:00:00 9.5 33 Oeste 59 Oeste 0 -- -- 68
2019-02-01 16:00:00 8.9 28 Oeste 60 Noroeste 0.6 -- -- 77
2019-02-01 15:00:00 9.6 31 Oeste 54 Oeste 0.2 -- -- 76
2019-02-01 14:00:00 11.3 38 Oeste 71 Oeste 0 -- -- 71
2019-02-01 13:00:00 11 33 Oeste 58 Sudoeste 0 -- -- 68
2019-02-01 12:00:00 10.6 33 Oeste 62 Sudoeste 0 -- -- 68
2019-02-01 11:00:00 10 26 Oeste 47 Oeste 0 -- -- 73
2019-02-01 10:00:00 8.6 19 Sudoeste 42 Oeste 0 -- -- 78
2019-02-01 09:00:00 7.9 21 Sudoeste 41 Sudoeste 0 -- -- 81
2019-02-01 08:00:00 7.7 20 Oeste 47 Oeste 0 -- -- 83
2019-02-01 07:00:00 8.5 28 Oeste 51 Oeste 0 -- -- 81
2019-02-01 06:00:00 8.6 21 Oeste 37 Oeste 0 -- -- 87
2019-02-01 05:00:00 8.6 24 Oeste 56 Oeste 0.4 -- -- 87
2019-02-01 04:00:00 9.7 21 Sudoeste 35 Oeste 0 -- -- 84
2019-02-01 03:00:00 9.7 20 Oeste 36 Oeste 0 -- -- 88
2019-02-01 02:00:00 10.3 24 Oeste 37 Oeste 0.8 -- -- 91
2019-02-01 01:00:00 11.6 22 Oeste 40 Oeste 5.4 -- -- 93
2019-02-01 00:00:00 12.1 15 Sudoeste 40 Sudoeste 0.8 -- -- 96
2019-01-31 23:00:00 11.7 12 Sudoeste 39 Sur 0.6 -- -- 96
2019-01-31 22:00:00 11.6 15 Sudoeste 41 Sudoeste 0.6 -- -- 95
2019-01-31 21:00:00 11.7 22 Sudoeste 43 Sudoeste 0.2 -- -- 93
2019-01-31 20:00:00 11.7 21 Sudoeste 43 Sudoeste 0.6 -- -- 94
2019-01-31 19:00:00 11.7 18 Sudoeste 38 Sur 0 -- -- 92
2019-01-31 18:00:00 13.1 17 Sudoeste 37 Sudoeste 0 -- -- 81
2019-01-31 17:00:00 13.5 25 Sudoeste 52 Oeste 0 -- -- 79
2019-01-31 16:00:00 14.3 22 Sudoeste 46 Sudoeste 0 -- -- 78
2019-01-31 15:00:00 14 24 Oeste 42 Oeste 0 -- -- 81
2019-01-31 14:00:00 14.5 28 Oeste 44 Oeste 0 -- -- 78
2019-01-31 13:00:00 14.5 29 Sudoeste 44 Sudoeste 0 -- -- 80
2019-01-31 12:00:00 13.3 23 Sudoeste 44 Sudoeste 0 -- -- 85
2019-01-31 11:00:00 13 19 Sudoeste 29 Sudoeste 0 -- -- 84
2019-01-31 10:00:00 11.7 14 Sudoeste 28 Oeste 0 -- -- 92
2019-01-31 09:00:00 11.5 19 Sudoeste 34 Sudoeste 0 -- -- 91
2019-01-31 08:00:00 11.2 16 Sudoeste 40 Sudoeste 0 -- -- 89
2019-01-31 07:00:00 11.6 23 Oeste 45 Oeste 0 -- -- 85
2019-01-31 06:00:00 11.9 19 Sudoeste 37 Oeste 0 -- -- 88
2019-01-31 05:00:00 11.9 20 Sudoeste 34 Sudoeste 0.2 -- -- 89
2019-01-31 04:00:00 12.2 18 Sudoeste 28 Sudoeste 0 -- -- 90
2019-01-31 03:00:00 12 15 Sudoeste 29 Sudoeste 0 -- -- 92
2019-01-31 02:00:00 12.1 18 Sudoeste 39 Sudoeste 0 -- -- 90
2019-01-31 01:00:00 12.3 23 Sudoeste 40 Sur 0 -- -- 88
2019-01-31 00:00:00 11.8 25 Sudoeste 44 Sudoeste 0 -- -- 89
2019-01-30 23:00:00 11.1 21 Sudoeste 40 Sudoeste 0 -- -- 92
2019-01-30 22:00:00 11 21 Sudoeste 38 Sudoeste 0 -- -- 94
2019-01-30 21:00:00 10.8 19 Sudoeste 29 Sudoeste 0 -- -- 92
2019-01-30 20:00:00 10.7 12 Sudoeste 29 Sudoeste 0 -- -- 93
2019-01-30 19:00:00 10.3 17 Sudoeste 26 Oeste 0 -- -- 95
2019-01-30 18:00:00 10.2 14 Sur 34 Sur 0 -- -- 93
2019-01-30 17:00:00 10.8 14 Sur 33 Sur 0 -- -- 88
2019-01-30 16:00:00 11.4 12 Sudoeste 27 Sudoeste 0 -- -- 79
2019-01-30 15:00:00 11.5 11 Sudoeste 29 Oeste 0 -- -- 71
2019-01-30 14:00:00 12 16 Oeste 26 Oeste 0 -- -- 70
2019-01-30 13:00:00 11.5 14 Oeste 24 Oeste 0 -- -- 70
2019-01-30 12:00:00 11.1 14 Oeste 21 Oeste 0 -- -- 73
2019-01-30 11:00:00 9.4 5 Oeste 12 Oeste 0 -- -- 82
2019-01-30 10:00:00 7.5 8 Oeste 13 Oeste 0 -- -- 88
2019-01-30 09:00:00 6.4 5 Sudoeste 12 Oeste 0 -- -- 91
2019-01-30 08:00:00 6.6 9 Oeste 14 Oeste 0 -- -- 90
2019-01-30 07:00:00 6.9 10 Oeste 21 Sudoeste 0 -- -- 88
2019-01-30 06:00:00 7 6 Oeste 10 Sudoeste 0 -- -- 86
2019-01-30 05:00:00 7.3 6 Oeste 19 Oeste 0 -- -- 84
2019-01-30 04:00:00 7.5 11 Oeste 16 Oeste 0 -- -- 82
2019-01-30 03:00:00 7.6 9 Oeste 23 Oeste 0 -- -- 79
2019-01-30 02:00:00 7.6 12 Oeste 22 Sudoeste 0 -- -- 81
2019-01-30 01:00:00 7.6 11 Oeste 21 Sudoeste 0 -- -- 83
2019-01-30 00:00:00 8.3 11 Sudoeste 21 Oeste 0 -- -- 87
2019-01-29 23:00:00 9.5 14 Oeste 33 Sudoeste 0 -- -- 85
2019-01-29 22:00:00 10.4 10 Oeste 33 Sudoeste 0 -- -- 86
2019-01-29 21:00:00 11.2 13 Oeste 42 Oeste 0 -- -- 86
2019-01-29 20:00:00 11.4 20 Oeste 42 Oeste 0 -- -- 84
2019-01-29 19:00:00 11 26 Oeste 48 Oeste 0 -- -- 83
2019-01-29 18:00:00 11.5 23 Oeste 48 Oeste 0 -- -- 80
2019-01-29 17:00:00 12.2 24 Oeste 43 Oeste 0 -- -- 76
2019-01-29 16:00:00 12.6 28 Oeste 50 Oeste 0 -- -- 75
2019-01-29 15:00:00 12.6 25 Oeste 46 Oeste 0 -- -- 75
2019-01-29 14:00:00 12.7 28 Oeste 46 Oeste 0 -- -- 72
2019-01-29 13:00:00 11.9 24 Oeste 41 Oeste 0 -- -- 77
2019-01-29 12:00:00 12.1 21 Oeste 38 Oeste 0 -- -- 79
2019-01-29 11:00:00 10.5 19 Oeste 32 Sudoeste 0 -- -- 86
2019-01-29 10:00:00 9.5 16 Oeste 26 Sudoeste 0 -- -- 84
2019-01-29 09:00:00 8.3 15 Sudoeste 24 Sudoeste 0 -- -- 82
2019-01-29 08:00:00 7.1 11 Sudoeste 19 Oeste 0 -- -- 85
2019-01-29 07:00:00 7.1 14 Oeste 24 Oeste 0 -- -- 84
2019-01-29 06:00:00 7.1 13 Sudoeste 22 Sudoeste 0 -- -- 84
2019-01-29 05:00:00 7.5 13 Sudoeste 25 Oeste 0 -- -- 81
2019-01-29 04:00:00 7.4 12 Sudoeste 25 Sudoeste 0 -- -- 83
2019-01-29 03:00:00 7.5 16 Sudoeste 24 Oeste 0 -- -- 82
2019-01-29 02:00:00 7.4 14 Oeste 22 Oeste 0 -- -- 86
2019-01-29 01:00:00 8.1 14 Oeste 20 Oeste 0 -- -- 87
2019-01-29 00:00:00 8.3 13 Oeste 22 Oeste 0 -- -- 90
2019-01-28 23:00:00 8.8 12 Sudoeste 19 Oeste 0 -- -- 90
2019-01-28 22:00:00 9.4 12 Oeste 22 Oeste 0 -- -- 89
2019-01-28 21:00:00 9.5 13 Oeste 30 Oeste 0 -- -- 88
2019-01-28 20:00:00 10.3 21 Oeste 31 Oeste 0 -- -- 85
2019-01-28 19:00:00 10.9 12 Oeste 33 Noroeste 0 -- -- 79
2019-01-28 18:00:00 12.2 13 Oeste 33 Oeste 0 -- -- 75
2019-01-28 17:00:00 12.3 25 Oeste 48 Oeste 0 -- -- 75
2019-01-28 16:00:00 13.4 25 Noroeste 48 Noroeste 0 -- -- 67
2019-01-28 15:00:00 13.2 24 Oeste 45 Oeste 0 -- -- 67
2019-01-28 14:00:00 14 20 Oeste 35 Noroeste 0 -- -- 63
2019-01-28 13:00:00 13 15 Noroeste 32 Oeste 0 -- -- 69
2019-01-28 12:00:00 11.5 16 Noroeste 28 Noroeste 0 -- -- 75
2019-01-28 11:00:00 9.3 13 Oeste 23 Oeste 0 -- -- 81
2019-01-28 10:00:00 7 12 Oeste 25 Oeste 0 -- -- 83
2019-01-28 09:00:00 5.5 16 Sudoeste 27 Oeste 0 -- -- 85
2019-01-28 08:00:00 5.3 12 Oeste 23 Oeste 0 -- -- 81
2019-01-28 07:00:00 5 13 Oeste 21 Oeste 0 -- -- 80
2019-01-28 06:00:00 5 14 Oeste 21 Sudoeste 0 -- -- 80
2019-01-28 05:00:00 4.4 8 Oeste 21 Noroeste 0 -- -- 84
2019-01-28 04:00:00 4.7 9 Oeste 21 Oeste 0 -- -- 84
2019-01-28 03:00:00 4.8 10 Sudoeste 23 Sudoeste 0 -- -- 83
2019-01-28 02:00:00 5.6 13 Oeste 22 Oeste 0 -- -- 79
2019-01-28 01:00:00 6.2 11 Oeste 20 Oeste 0 -- -- 76
2019-01-28 00:00:00 5.8 8 Oeste 14 Oeste 0 -- -- 76
2019-01-27 23:00:00 6.3 8 Oeste 14 Oeste 0 -- -- 73
2019-01-27 22:00:00 6.7 6 Oeste 15 Noroeste 0 -- -- 71
2019-01-27 21:00:00 7.6 8 Oeste 20 Noroeste 0 -- -- 68
2019-01-27 20:00:00 8.6 10 Noroeste 17 Oeste 0 -- -- 64
2019-01-27 19:00:00 9.6 9 Oeste 15 Noroeste 0 -- -- 59
2019-01-27 18:00:00 11.7 8 Noroeste 28 Noroeste 0 -- -- 51
2019-01-27 17:00:00 13 18 Noroeste 36 Noroeste 0 -- -- 47
2019-01-27 16:00:00 13.3 20 Noroeste 38 Noroeste 0 -- -- 48
2019-01-27 15:00:00 13.1 21 Noroeste 41 Noroeste 0 -- -- 48
2019-01-27 14:00:00 12.7 16 Noroeste 31 Noroeste 0 -- -- 52
2019-01-27 13:00:00 12.2 13 Norte 37 Noroeste 0 -- -- 54
2019-01-27 12:00:00 10.6 14 Noroeste 22 Noroeste 0 -- -- 70
2019-01-27 11:00:00 7.8 9 Oeste 17 Oeste 0 -- -- 88
2019-01-27 10:00:00 7.7 11 Oeste 19 Oeste 0 -- -- 85
2019-01-27 09:00:00 5.8 12 Sudoeste 23 Sudoeste 0 -- -- 88
2019-01-27 08:00:00 6.4 15 Sudoeste 25 Sudoeste 0 -- -- 84
2019-01-27 07:00:00 6.4 12 Sudoeste 23 Sudoeste 0 -- -- 82
2019-01-27 06:00:00 6.5 15 Sudoeste 25 Sudoeste 0 -- -- 82
2019-01-27 05:00:00 5.9 15 Oeste 23 Oeste 0 -- -- 90
2019-01-27 04:00:00 6.7 10 Oeste 21 Oeste 0 -- -- 88
2019-01-27 03:00:00 7.5 11 Sudoeste 19 Sudoeste 0 -- -- 85
2019-01-27 02:00:00 9.2 12 Sudoeste 17 Sudoeste 0 -- -- 76
2019-01-27 01:00:00 8.6 8 Oeste 21 Sudoeste 0 -- -- 72
2019-01-27 00:00:00 11.2 11 Sudoeste 22 Sudoeste 0 -- -- 68
2019-01-26 23:00:00 9.1 0 Calma 19 Sudoeste 0 -- -- 75
2019-01-26 22:00:00 9.9 5 Oeste 17 Sudoeste 0 -- -- 73
2019-01-26 21:00:00 12.8 10 Sudoeste 19 Sudoeste 0 -- -- 65
2019-01-26 20:00:00 13.1 13 Sudoeste 17 Sudoeste 0 -- -- 70
2019-01-26 19:00:00 12.9 10 Sudoeste 12 Sudoeste 0 -- -- 66
2019-01-26 18:00:00 14.4 7 Sudoeste 13 Sudoeste 0 -- -- 63
2019-01-26 17:00:00 18.5 6 Sudoeste 14 Sur 0 -- -- 48
2019-01-26 16:00:00 18.4 6 Sudoeste 15 Sudoeste 0 -- -- 45
2019-01-26 15:00:00 16.3 3 Nordeste 7 Nordeste 0 -- -- 59
2019-01-26 14:00:00 14.9 0 Calma 5 Norte 0 -- -- 64
2019-01-26 13:00:00 12.8 2 Norte 5 Nordeste 0 -- -- 71
2019-01-26 12:00:00 9.4 0 Calma 4 Noroeste 0 -- -- 82
2019-01-26 11:00:00 6.3 0 Calma 4 Oeste 0 -- -- 88
2019-01-26 10:00:00 2.5 0 Calma 3 Este 0 -- -- 97
2019-01-26 09:00:00 0.1 0 Calma 2 Sudeste 0 -- -- 95
2019-01-26 08:00:00 0.5 0 Calma 4 Sur 0 -- -- 95
2019-01-26 07:00:00 1.1 0 Calma 2 Sudeste 0 -- -- 94
2019-01-26 06:00:00 1.8 0 Calma 4 Sur 0 -- -- 94
2019-01-26 05:00:00 2.8 0 Calma 4 Noroeste 0 -- -- 94
2019-01-26 04:00:00 3.4 4 Sur 8 Sur 0 -- -- 93
2019-01-26 03:00:00 3.9 2 Sur 4 Sur 0 -- -- 90
2019-01-26 02:00:00 4.6 0 Calma 9 Oeste 0 -- -- 87
2019-01-26 01:00:00 5.7 4 Sudoeste 7 Oeste 0 -- -- 85
2019-01-26 00:00:00 6.9 3 Oeste 8 Oeste 0 -- -- 79
2019-01-25 23:00:00 7.8 0 Calma 8 Sudeste 0 -- -- 78
2019-01-25 22:00:00 7.5 0 Calma 6 Sur 0 -- -- 83
2019-01-25 21:00:00 8.6 3 Sudoeste 6 Oeste 0 -- -- 78
2019-01-25 20:00:00 9.1 4 Sur 6 Sur 0 -- -- 77
2019-01-25 19:00:00 10 3 Sur 6 Sur 0 -- -- 76
2019-01-25 18:00:00 13.3 2 Sur 11 Norte 0 -- -- 65
2019-01-25 17:00:00 18.2 5 Norte 11 Norte 0 -- -- 50
2019-01-25 16:00:00 18.6 3 Sudeste 9 Sur 0 -- -- 49
2019-01-25 15:00:00 17.2 4 Nordeste 10 Este 0 -- -- 51
2019-01-25 14:00:00 16.7 4 Norte 9 Este 0 -- -- 54
2019-01-25 13:00:00 15.4 4 Nordeste 8 Norte 0 -- -- 58
2019-01-25 12:00:00 14.4 2 Nordeste 5 Nordeste 0 -- -- 62
2019-01-25 11:00:00 12.1 0 Calma 12 Oeste 0 -- -- 69
2019-01-25 10:00:00 9.3 5 Oeste 12 Oeste 0 -- -- 76
2019-01-25 09:00:00 5.6 6 Sudoeste 12 Oeste 0 -- -- 91
2019-01-25 08:00:00 7 2 Sur 11 Sur 0 -- -- 84
2019-01-25 07:00:00 6.6 0 Calma 10 Sudeste 0 -- -- 87
2019-01-25 06:00:00 7.8 0 Calma 9 Sudeste 0 -- -- 84
2019-01-25 05:00:00 6.6 2 Sudeste 5 Oeste 0 -- -- 91
2019-01-25 04:00:00 6.6 2 Sudoeste 9 Sudoeste 0 -- -- 87
2019-01-25 03:00:00 7 5 Sudoeste 8 Oeste 0 -- -- 88
2019-01-25 02:00:00 8.3 0 Calma 8 Oeste 0 -- -- 80
2019-01-25 01:00:00 8.9 5 Sudoeste 13 Oeste 0 -- -- 79
2019-01-25 00:00:00 10.3 6 Oeste 15 Oeste 0 -- -- 74
2019-01-24 23:00:00 11.2 4 Sudoeste 24 Norte 0 -- -- 72
2019-01-24 22:00:00 11.5 7 Oeste 12 Oeste 0 -- -- 72
2019-01-24 21:00:00 12.7 2 Sur 33 Oeste 0 -- -- 68
2019-01-24 20:00:00 13.4 11 Sudoeste 22 Sudoeste 0 -- -- 67
2019-01-24 19:00:00 13.1 4 Sur 13 Norte 0 -- -- 69
2019-01-24 18:00:00 17.1 6 Noroeste 26 Norte 0 -- -- 57
2019-01-24 17:00:00 18.5 13 Norte 26 Norte 0 -- -- 53
2019-01-24 16:00:00 18.7 11 Noroeste 30 Noroeste 0 -- -- 54
2019-01-24 15:00:00 18 20 Noroeste 35 Noroeste 0 -- -- 59
2019-01-24 14:00:00 17.3 17 Noroeste 30 Noroeste 0 -- -- 60
2019-01-24 13:00:00 16 15 Noroeste 28 Noroeste 0 -- -- 65
2019-01-24 12:00:00 15.2 12 Norte 22 Noroeste 0 -- -- 67
2019-01-24 11:00:00 13.9 12 Noroeste 21 Noroeste 0 -- -- 73
2019-01-24 10:00:00 11.1 7 Oeste 22 Oeste 0 -- -- 82
2019-01-24 09:00:00 9.2 9 Oeste 25 Oeste 0 -- -- 87
2019-01-24 08:00:00 9.2 16 Oeste 23 Oeste 0 -- -- 87
2019-01-24 07:00:00 9.2 13 Oeste 22 Oeste 0 -- -- 87
2019-01-24 06:00:00 9.4 14 Oeste 21 Oeste 0 -- -- 86
2019-01-24 05:00:00 10.5 13 Oeste 24 Oeste 0 -- -- 82
2019-01-24 04:00:00 9.8 11 Oeste 25 Oeste 0 -- -- 85
2019-01-24 03:00:00 10.2 12 Sudoeste 20 Oeste 0 -- -- 82
2019-01-24 02:00:00 10.2 13 Oeste 21 Oeste 0 -- -- 82
2019-01-24 01:00:00 10.6 11 Oeste 25 Oeste 0 -- -- 81
2019-01-24 00:00:00 10.5 11 Oeste 24 Oeste 0 -- -- 83
2019-01-23 23:00:00 10.9 11 Sudoeste 21 Oeste 0 -- -- 82
2019-01-23 22:00:00 11 12 Oeste 21 Oeste 0 -- -- 83
2019-01-23 21:00:00 11 13 Oeste 24 Oeste 0 -- -- 83
2019-01-23 20:00:00 11.2 15 Oeste 28 Noroeste 0 -- -- 81
2019-01-23 19:00:00 12.5 14 Oeste 28 Noroeste 0 -- -- 74
2019-01-23 18:00:00 13.5 18 Noroeste 41 Oeste 0 -- -- 66
2019-01-23 17:00:00 15.1 25 Noroeste 42 Oeste 0 -- -- 61
2019-01-23 16:00:00 15.2 18 Noroeste 42 Noroeste 0 -- -- 60
2019-01-23 15:00:00 15 22 Noroeste 43 Noroeste 0 -- -- 60
2019-01-23 14:00:00 14.8 26 Noroeste 41 Oeste 0 -- -- 64
2019-01-23 13:00:00 13.4 21 Noroeste 42 Noroeste 0 -- -- 70
2019-01-23 12:00:00 12.8 24 Oeste 44 Noroeste 0 -- -- 72
2019-01-23 11:00:00 11.4 16 Oeste 31 Oeste 0 -- -- 74
2019-01-23 10:00:00 9.1 16 Oeste 27 Oeste 0 -- -- 80
2019-01-23 09:00:00 8.7 15 Sudoeste 24 Sudoeste 0 -- -- 81
2019-01-23 08:00:00 8.5 14 Oeste 26 Oeste 0 -- -- 87
2019-01-23 07:00:00 8.5 16 Oeste 30 Oeste 0 -- -- 86
2019-01-23 06:00:00 7.9 13 Oeste 23 Oeste 0 -- -- 85
2019-01-23 05:00:00 7.7 11 Oeste 26 Oeste 0 -- -- 84
2019-01-23 04:00:00 8 16 Sudoeste 31 Sudoeste 0 -- -- 84
2019-01-23 03:00:00 7.7 13 Sudoeste 25 Sudoeste 0 -- -- 84
2019-01-23 02:00:00 7.5 13 Sudoeste 21 Sudoeste 0 -- -- 85
2019-01-23 01:00:00 7 10 Oeste 19 Sudoeste 0 -- -- 85
2019-01-23 00:00:00 7.5 13 Sudoeste 27 Oeste 0 -- -- 81
2019-01-22 23:00:00 7.8 15 Oeste 27 Oeste 0 -- -- 82
2019-01-22 22:00:00 8.1 12 Oeste 30 Oeste 0 -- -- 83
2019-01-22 21:00:00 9 14 Oeste 28 Oeste 0 -- -- 87
2019-01-22 20:00:00 9.5 19 Oeste 30 Sudoeste 0 -- -- 88
2019-01-22 19:00:00 9.5 15 Oeste 31 Oeste 0 -- -- 84
2019-01-22 18:00:00 10.3 17 Oeste 36 Oeste 0 -- -- 79
2019-01-22 17:00:00 10.6 16 Oeste 33 Oeste 0 -- -- 74
2019-01-22 16:00:00 11 17 Oeste 35 Oeste 0 -- -- 70
2019-01-22 15:00:00 11.5 13 Noroeste 32 Oeste 0 -- -- 65
2019-01-22 14:00:00 11 15 Noroeste 31 Oeste 0 -- -- 66
2019-01-22 13:00:00 10 15 Noroeste 23 Noroeste 0 -- -- 67
2019-01-22 12:00:00 8.9 13 Oeste 22 Oeste 0 -- -- 71
2019-01-22 11:00:00 6.8 8 Oeste 21 Sudoeste 0 -- -- 78
2019-01-22 10:00:00 5 10 Sudoeste 19 Sudoeste 0 -- -- 82
2019-01-22 09:00:00 4.7 11 Sudoeste 21 Sudoeste 0 -- -- 84
2019-01-22 08:00:00 4.8 7 Oeste 13 Oeste 0 -- -- 86
2019-01-22 07:00:00 5.1 5 Oeste 14 Oeste 0 -- -- 84
2019-01-22 06:00:00 5.3 5 Oeste 17 Oeste 0 -- -- 81
2019-01-22 05:00:00 6.1 7 Sudoeste 13 Sudoeste 0 -- -- 74
2019-01-22 04:00:00 5.9 8 Sudoeste 17 Oeste 0 -- -- 72
2019-01-22 03:00:00 5.1 6 Oeste 18 Oeste 0 -- -- 73
2019-01-22 02:00:00 5.5 9 Sudoeste 14 Sudoeste 0 -- -- 71
2019-01-22 01:00:00 5.5 10 Sudoeste 14 Sudoeste 0 -- -- 71
2019-01-22 00:00:00 3.7 5 Sudoeste 13 Sur 0 -- -- 80
2019-01-21 23:00:00 4.2 3 Sur 7 Sur 0 -- -- 79
2019-01-21 22:00:00 4.9 2 Sudeste 9 Sudoeste 0 -- -- 76
2019-01-21 21:00:00 4.7 3 Sudeste 6 Sudeste 0 -- -- 77
2019-01-21 20:00:00 6.1 2 Este 9 Este 0 -- -- 73
2019-01-21 19:00:00 6.1 2 Este 4 Sudeste 0 -- -- 74
2019-01-21 18:00:00 11.1 5 Norte 19 Noroeste 0 -- -- 55
2019-01-21 17:00:00 12.7 8 Norte 18 Noroeste 0 -- -- 53
2019-01-21 16:00:00 12.5 6 Norte 17 Norte 0 -- -- 55
2019-01-21 15:00:00 12.3 10 Norte 22 Nordeste 0 -- -- 56
2019-01-21 14:00:00 11.8 16 Nordeste 27 Nordeste 0 -- -- 53
2019-01-21 13:00:00 11.2 14 Norte 27 Nordeste 0 -- -- 59
2019-01-21 12:00:00 9 6 Noroeste 13 Noroeste 0 -- -- 75
2019-01-21 11:00:00 6.8 8 Oeste 15 Oeste 0 -- -- 78
2019-01-21 10:00:00 4.7 7 Oeste 13 Oeste 0 -- -- 84
2019-01-21 09:00:00 3.1 7 Oeste 13 Sudoeste 0 -- -- 89
2019-01-21 08:00:00 3.4 7 Sudoeste 15 Sudoeste 0 -- -- 87
2019-01-21 07:00:00 4.2 9 Sudoeste 18 Sudoeste 0 -- -- 85
2019-01-21 06:00:00 4.7 10 Sudoeste 18 Oeste 0 -- -- 84
2019-01-21 05:00:00 4.5 8 Oeste 15 Oeste 0 -- -- 85
2019-01-21 04:00:00 4.8 5 Oeste 13 Oeste 0 -- -- 84
2019-01-21 03:00:00 5.4 8 Oeste 20 Oeste 0 -- -- 83
2019-01-21 02:00:00 5.9 11 Sudoeste 18 Oeste 0 -- -- 83
2019-01-21 01:00:00 6.2 10 Sudoeste 15 Oeste 0 -- -- 82
2019-01-21 00:00:00 6.4 9 Oeste 17 Sudoeste 0 -- -- 81
2019-01-20 23:00:00 6.4 5 Sudoeste 17 Oeste 0 -- -- 80
2019-01-20 22:00:00 7.3 6 Oeste 17 Oeste 0 -- -- 74
2019-01-20 21:00:00 7.4 6 Oeste 17 Oeste 0 -- -- 73
2019-01-20 20:00:00 8.1 2 Oeste 11 Noroeste 0 -- -- 71
2019-01-20 19:00:00 8.3 3 Sudoeste 12 Noroeste 0 -- -- 71
2019-01-20 18:00:00 11.1 5 Noroeste 21 Norte 0 -- -- 61
2019-01-20 17:00:00 13.2 13 Norte 28 Noroeste 0 -- -- 52
2019-01-20 16:00:00 13.4 13 Noroeste 28 Noroeste 0 -- -- 54
2019-01-20 15:00:00 13 13 Norte 29 Oeste 0 -- -- 57
2019-01-20 14:00:00 12.4 10 Norte 27 Noroeste 0 -- -- 62
2019-01-20 13:00:00 11.5 15 Norte 30 Noroeste 0 -- -- 63
2019-01-20 12:00:00 10.5 14 Noroeste 27 Norte 0 -- -- 68
2019-01-20 11:00:00 9.3 9 Noroeste 27 Noroeste 0 -- -- 77
2019-01-20 10:00:00 7.2 7 Noroeste 14 Noroeste 0 -- -- 82
2019-01-20 09:00:00 6.1 6 Noroeste 17 Noroeste 0 -- -- 86
2019-01-20 08:00:00 6.8 8 Noroeste 24 Oeste 0 -- -- 86
2019-01-20 07:00:00 7.6 12 Noroeste 24 Oeste 0 -- -- 88
2019-01-20 06:00:00 8.5 13 Noroeste 22 Noroeste 0 -- -- 95
2019-01-20 05:00:00 10 11 Noroeste 25 Oeste 0 -- -- 95
2019-01-20 04:00:00 10.5 13 Oeste 23 Sudoeste 0 -- -- 94
2019-01-20 03:00:00 10.9 10 Oeste 28 Sudoeste 0 -- -- 93
2019-01-20 02:00:00 11.1 14 Sudoeste 26 Sudoeste 0.2 -- -- 92
2019-01-20 01:00:00 11.3 15 Sudoeste 27 Sudoeste 0 -- -- 90
2019-01-20 00:00:00 11.2 15 Sudoeste 28 Sudoeste 0 -- -- 90
2019-01-19 23:00:00 11 15 Sudoeste 28 Sudoeste 0 -- -- 93
2019-01-19 22:00:00 11.1 18 Sudoeste 29 Sudoeste 0 -- -- 95
2019-01-19 21:00:00 10.4 15 Sudoeste 25 Sudoeste 0.2 -- -- 97
2019-01-19 20:00:00 10.6 15 Sur 36 Sur 0 -- -- 96
2019-01-19 19:00:00 10.2 25 Sur 39 Sur 0.4 -- -- 97
2019-01-19 18:00:00 9.6 20 Sur 36 Sudeste 0 -- -- 97
2019-01-19 17:00:00 8.6 20 Sur 35 Sur 0 -- -- 97
2019-01-19 16:00:00 8 22 Sur 39 Sur 0 -- -- 96
2019-01-19 15:00:00 7.9 28 Sur 40 Sur 0 -- -- 95
2019-01-19 14:00:00 7.7 23 Sur 39 Sur 0 -- -- 94
2019-01-19 13:00:00 7.4 19 Sur 40 Sur 0.2 -- -- 94
2019-01-19 12:00:00 7 23 Sur 38 Sur 0.6 -- -- 94
2019-01-19 11:00:00 6.4 8 Sudoeste 20 Sur 0 -- -- 94
2019-01-19 10:00:00 4.4 0 Calma 4 Oeste 0 -- -- 97
2019-01-19 09:00:00 3.8 0 Calma 3 Norte 0 -- -- 96
2019-01-19 08:00:00 3.7 0 Calma 3 Oeste 0 -- -- 96
2019-01-19 07:00:00 3.9 2 Noroeste 4 Noroeste 0 -- -- 96
2019-01-19 06:00:00 3.8 0 Calma 7 Oeste 0 -- -- 96
2019-01-19 05:00:00 3.6 2 Oeste 6 Sudoeste 0 -- -- 96
2019-01-19 04:00:00 3.4 0 Calma 3 Noroeste 0 -- -- 95
2019-01-19 03:00:00 4.2 0 Calma -- -- 0 -- -- 97
2019-01-19 02:00:00 2.4 0 Calma 4 Sur 0 -- -- 95
2019-01-19 01:00:00 4.8 2 Noroeste 13 Sudoeste 0 -- -- 88
2019-01-19 00:00:00 4.9 3 Oeste 9 Sudoeste 0 -- -- 90